.
WxDataArchive / Data Records for 2012-09-08
2012-09-07 September 2012 2012-09-09

Data Records for Saturday, 08 September 2012

Time	Temp	Chill	HIndex	Humid	Dewpt	 Wind 	HiWind	WindDir	Rain 	Barom 
-----	----	-----	------	-----	-----	------	------	-------	-----	----- 
00:00	66.8	66.8	66.8	95	65.3	0	1	270	0.00	29.669 
00:05	66.8	66.8	66.8	95	65.3	0	0	---	0.00	29.669 
00:10	66.6	66.6	66.6	95	65.1	0	0	---	0.01	29.669 
00:15	66.6	66.6	66.6	95	65.1	0	0	---	0.00	29.665 
00:20	66.4	66.4	66.4	95	64.9	0	0	---	0.00	29.665 
00:25	66.4	66.4	66.4	95	64.9	0	0	---	0.00	29.665 
00:30	66.4	66.4	66.4	95	64.9	0	0	---	0.01	29.666 
00:35	66.3	66.3	66.3	95	64.8	0	0	---	0.00	29.666 
00:40	66.3	66.3	66.3	95	64.8	0	0	---	0.00	29.666 
00:45	66.1	66.1	66.1	95	64.6	0	0	---	0.01	29.655 
00:50	66.1	66.1	66.1	95	64.6	0	0	---	0.00	29.655 
00:55	66.3	66.3	66.3	95	64.8	0	0	---	0.01	29.655 
01:00	66.3	66.3	66.3	95	64.8	0	0	---	0.00	29.650 
01:05	66.3	66.3	66.3	95	64.8	0	0	---	0.00	29.650 
01:10	66.3	66.3	66.3	95	64.8	0	0	---	0.01	29.650 
01:15	66.4	66.4	66.4	95	64.9	0	1	270	0.00	29.652 
01:20	66.4	66.4	66.4	95	64.9	0	1	270	0.01	29.652 
01:25	66.4	66.4	66.4	95	64.9	1	3	270	0.02	29.652 
01:30	65.2	65.2	65.2	94	63.4	2	7	315	0.01	29.663 
01:35	63.5	63.5	63.5	94	61.7	1	7	112	0.02	29.663 
01:40	62.7	62.7	62.7	94	60.9	1	6	292	0.01	29.663 
01:45	62.1	62.1	62.1	94	60.3	2	6	292	0.00	29.672 
01:50	62.0	62.0	62.0	95	60.5	1	6	270	0.01	29.672 
01:55	61.5	61.5	61.5	94	59.8	2	9	338	0.00	29.672 
02:00	60.9	60.9	60.9	94	59.2	2	7	338	0.00	29.674 
02:05	60.7	60.7	60.7	94	59.0	1	6	270	0.00	29.674 
02:10	60.4	60.4	60.4	95	59.0	1	6	315	0.00	29.674 
02:15	60.2	60.2	60.2	94	58.5	1	5	292	0.00	29.675 
02:20	60.1	60.1	60.1	94	58.4	1	7	292	0.00	29.675 
02:25	60.1	60.1	60.1	95	58.7	1	4	292	0.01	29.675 
02:30	60.1	60.1	60.1	94	58.4	1	4	292	0.00	29.676 
02:35	59.8	59.8	59.8	94	58.1	1	6	292	0.01	29.676 
02:40	59.6	59.6	59.6	94	57.9	0	3	315	0.00	29.676 
02:45	59.6	59.6	59.6	94	57.9	0	3	315	0.00	29.680 
02:50	59.5	59.5	59.5	94	57.8	1	3	315	0.01	29.680 
02:55	59.3	59.3	59.3	94	57.6	1	3	248	0.00	29.680 
03:00	59.2	59.2	59.2	94	57.5	1	4	292	0.00	29.689 
03:05	59.0	59.0	59.0	94	57.3	0	2	315	0.02	29.689 
03:10	58.7	58.7	58.7	94	57.0	1	3	292	0.02	29.689 
03:15	58.7	58.7	58.7	95	57.3	0	2	292	0.00	29.691 
03:20	58.3	58.3	58.3	94	56.6	1	6	292	0.00	29.691 
03:25	57.8	57.8	57.8	94	56.1	1	5	0	0.00	29.691 
03:30	57.5	57.5	57.5	94	55.8	1	5	315	0.00	29.696 
03:35	57.3	57.3	57.3	94	55.6	0	2	315	0.01	29.696 
03:40	57.2	57.2	57.2	94	55.5	1	4	270	0.00	29.696 
03:45	57.0	57.0	57.0	94	55.3	0	2	270	0.00	29.706 
03:50	56.9	56.9	56.9	94	55.2	1	3	270	0.00	29.706 
03:55	56.7	56.7	56.7	94	55.0	1	4	292	0.00	29.706 
04:00	56.6	56.6	56.6	94	54.9	0	3	292	0.00	29.708 
04:05	56.5	56.5	56.5	94	54.8	0	3	292	0.00	29.708 
04:10	56.5	56.5	56.5	94	54.8	0	5	292	0.00	29.708 
04:15	56.3	56.3	56.3	94	54.6	1	3	270	0.00	29.709 
04:20	56.3	56.3	56.3	94	54.6	0	3	292	0.00	29.709 
04:25	56.3	56.3	56.3	94	54.6	0	3	292	0.00	29.709 
04:30	56.3	56.3	56.3	94	54.6	0	3	292	0.00	29.707 
04:35	56.3	56.3	56.3	94	54.6	0	3	292	0.00	29.707 
04:40	56.3	56.3	56.3	94	54.6	1	3	292	0.00	29.707 
04:45	56.3	56.3	56.3	94	54.6	1	4	292	0.00	29.707 
04:50	56.3	56.3	56.3	94	54.6	1	4	292	0.00	29.707 
04:55	56.3	56.3	56.3	94	54.6	0	2	315	0.00	29.707 
05:00	56.5	56.5	56.5	94	54.8	0	2	315	0.00	29.715 
05:05	56.5	56.5	56.5	94	54.8	0	2	315	0.00	29.715 
05:10	56.5	56.5	56.5	94	54.8	0	1	315	0.00	29.715 
05:15	56.5	56.5	56.5	94	54.8	0	1	315	0.00	29.711 
05:20	56.5	56.5	56.5	94	54.8	0	1	315	0.00	29.711 
05:25	56.5	56.5	56.5	94	54.8	0	1	315	0.00	29.711 
05:30	56.5	56.5	56.5	94	54.8	0	2	315	0.00	29.710 
05:35	56.5	56.5	56.5	94	54.8	0	1	315	0.00	29.710 
05:40	56.5	56.5	56.5	94	54.8	1	3	315	0.00	29.710 
05:45	56.5	56.5	56.5	94	54.8	0	3	315	0.00	29.710 
05:50	56.5	56.5	56.5	94	54.8	1	3	315	0.00	29.710 
05:55	56.5	56.5	56.5	94	54.8	0	1	315	0.00	29.710 
06:00	56.5	56.5	56.5	94	54.8	0	1	315	0.00	29.713 
06:05	56.3	56.3	56.3	94	54.6	0	1	315	0.00	29.713 
06:10	56.3	56.3	56.3	94	54.6	0	1	315	0.00	29.713 
06:15	56.2	56.2	56.2	94	54.5	0	1	315	0.00	29.719 
06:20	56.2	56.2	56.2	94	54.5	0	1	315	0.00	29.719 
06:25	56.0	56.0	56.0	94	54.3	0	0	---	0.00	29.719 
06:30	56.0	56.0	56.0	94	54.3	0	1	315	0.00	29.727 
06:35	55.9	55.9	55.9	94	54.2	0	0	---	0.00	29.727 
06:40	55.9	55.9	55.9	94	54.2	0	0	---	0.00	29.727 
06:45	55.7	55.7	55.7	94	54.0	0	0	---	0.00	29.730 
06:50	55.6	55.6	55.6	94	53.9	0	0	---	0.00	29.730 
06:55	55.6	55.6	55.6	94	53.9	0	1	315	0.00	29.730 
07:00	55.4	55.4	55.4	94	53.7	0	0	---	0.00	29.742 
07:05	55.4	55.4	55.4	94	53.7	0	0	---	0.00	29.742 
07:10	55.3	55.3	55.3	94	53.6	0	0	---	0.00	29.742 
07:15	55.3	55.3	55.3	94	53.6	0	0	---	0.00	29.747 
07:20	55.1	55.1	55.1	94	53.4	0	0	---	0.00	29.747 
07:25	55.1	55.1	55.1	94	53.4	0	1	315	0.00	29.747 
07:30	55.1	55.1	55.1	94	53.4	0	1	315	0.00	29.756 
07:35	55.1	55.1	55.1	95	53.7	0	0	---	0.00	29.756 
07:40	55.3	55.3	55.3	95	53.9	0	0	---	0.00	29.756 
07:45	55.4	55.4	55.4	95	54.0	0	0	---	0.00	29.758 
07:50	55.4	55.4	55.4	95	54.0	0	1	315	0.00	29.758 
07:55	55.4	55.4	55.4	95	54.0	0	1	315	0.00	29.758 
08:00	55.4	55.4	55.4	95	54.0	0	1	315	0.00	29.765 
08:05	55.4	55.4	55.4	95	54.0	0	1	315	0.00	29.765 
08:10	55.6	55.6	55.6	95	54.2	0	1	315	0.00	29.765 
08:15	55.7	55.7	55.7	95	54.3	0	1	315	0.00	29.778 
08:20	55.9	55.9	55.9	95	54.5	0	3	315	0.00	29.778 
08:25	56.0	56.0	56.0	95	54.6	1	3	315	0.00	29.778 
08:30	56.2	56.2	56.2	95	54.8	0	1	315	0.00	29.779 
08:35	56.2	56.2	56.2	95	54.8	0	1	315	0.00	29.779 
08:40	56.3	56.3	56.3	95	54.9	0	1	315	0.00	29.779 
08:45	56.5	56.5	56.5	95	55.1	1	2	315	0.00	29.787 
08:50	56.7	56.7	56.7	94	55.0	1	2	315	0.00	29.787 
08:55	56.9	56.9	56.9	94	55.2	1	3	315	0.00	29.787 
09:00	57.0	57.0	57.0	94	55.3	1	3	315	0.00	29.789 
09:05	57.2	57.2	57.2	93	55.2	1	3	315	0.00	29.789 
09:10	57.3	57.3	57.3	93	55.3	1	3	315	0.00	29.789 
09:15	57.5	57.5	57.5	93	55.5	1	4	315	0.00	29.784 
09:20	57.6	57.6	57.6	92	55.3	1	3	315	0.00	29.784 
09:25	58.0	58.0	58.0	92	55.7	1	4	315	0.00	29.784 
09:30	58.3	58.3	58.3	92	56.0	1	4	248	0.00	29.793 
09:35	58.6	58.6	58.6	91	56.0	2	5	292	0.00	29.793 
09:40	58.7	58.7	58.7	90	55.8	1	4	315	0.00	29.793 
09:45	59.3	59.3	59.3	89	56.1	1	3	315	0.00	29.794 
09:50	59.5	59.5	59.5	88	55.9	1	4	270	0.00	29.794 
09:55	59.9	59.9	59.9	88	56.3	1	4	270	0.00	29.794 
10:00	60.1	60.1	60.1	86	55.9	2	4	270	0.00	29.797 
10:05	60.2	60.2	60.2	84	55.3	2	4	315	0.00	29.797 
10:10	60.5	60.5	60.5	82	55.0	1	3	292	0.00	29.797 
10:15	61.0	61.0	61.0	81	55.1	1	4	292	0.00	29.802 
10:20	61.6	61.6	61.6	78	54.7	1	3	0	0.00	29.802 
10:25	62.1	62.1	62.1	77	54.8	1	4	315	0.00	29.802 
10:30	62.3	62.3	62.3	74	53.9	1	4	292	0.00	29.804 
10:35	62.4	62.4	62.4	73	53.6	0	2	292	0.00	29.804 
10:40	63.1	63.1	63.1	73	54.3	1	3	292	0.00	29.804 
10:45	63.4	63.4	63.4	70	53.4	1	6	292	0.00	29.807 
10:50	63.5	63.5	63.5	69	53.1	1	3	292	0.00	29.807 
10:55	63.9	63.9	63.9	69	53.5	1	4	292	0.00	29.807 
11:00	64.2	64.2	64.2	67	53.0	1	3	292	0.00	29.806 
11:05	64.3	64.3	64.3	66	52.7	1	4	292	0.00	29.806 
11:10	64.2	64.2	64.2	65	52.2	2	6	292	0.00	29.806 
11:15	64.0	64.0	64.0	63	51.1	3	7	292	0.00	29.809 
11:20	64.7	64.7	64.7	64	52.2	2	4	292	0.00	29.809 
11:25	65.3	65.3	65.3	64	52.8	2	7	292	0.00	29.809 
11:30	65.0	65.0	65.0	64	52.5	2	5	292	0.00	29.807 
11:35	65.0	65.0	65.0	64	52.5	2	4	292	0.00	29.807 
11:40	65.3	65.3	65.3	65	53.2	1	3	292	0.00	29.807 
11:45	65.8	65.8	65.8	62	52.4	2	4	292	0.00	29.805 
11:50	65.8	65.8	65.8	61	52.0	2	4	315	0.00	29.805 
11:55	65.5	65.5	65.5	62	52.1	1	3	270	0.00	29.805 
12:00	65.3	65.3	65.3	62	51.9	1	5	315	0.00	29.806 
12:05	65.5	65.5	65.5	63	52.6	2	5	315	0.00	29.806 
12:10	66.0	66.0	66.0	62	52.6	2	4	270	0.00	29.806 
12:15	66.1	66.1	66.1	61	52.3	3	6	270	0.00	29.808 
12:20	67.1	67.1	67.1	60	52.7	2	4	338	0.00	29.808 
12:25	66.9	66.9	66.9	58	51.6	3	7	270	0.00	29.808 
12:30	67.4	67.4	67.4	57	51.6	2	5	315	0.00	29.805 
12:35	67.3	67.3	67.3	57	51.5	2	6	292	0.00	29.805 
12:40	67.3	67.3	67.3	58	52.0	2	5	315	0.00	29.805 
12:45	68.1	68.1	68.1	57	52.3	2	6	270	0.00	29.804 
12:50	68.4	68.4	68.4	55	51.6	2	4	292	0.00	29.804 
12:55	68.6	68.6	68.6	55	51.8	2	5	292	0.00	29.804 
13:00	68.6	68.6	68.6	53	50.8	3	6	315	0.00	29.803 
13:05	68.4	68.4	68.4	54	51.1	3	6	292	0.00	29.803 
13:10	68.8	68.8	68.8	53	51.0	3	7	270	0.00	29.803 
13:15	68.9	68.9	68.9	56	52.5	2	6	315	0.00	29.807 
13:20	69.3	69.3	69.3	54	51.9	2	5	292	0.00	29.807 
13:25	69.4	69.4	69.4	49	49.4	3	6	292	0.00	29.807 
13:30	69.8	69.8	69.8	51	50.8	3	11	270	0.00	29.801 
13:35	69.8	69.8	69.8	51	50.8	3	5	270	0.00	29.801 
13:40	69.4	69.4	69.4	51	50.5	2	4	270	0.00	29.801 
13:45	69.8	69.8	69.8	52	51.4	2	5	315	0.00	29.795 
13:50	69.9	69.9	69.9	52	51.5	3	9	292	0.00	29.795 
13:55	70.3	70.3	70.3	51	51.3	2	7	292	0.00	29.795 
14:00	70.6	70.6	70.6	50	51.0	3	6	315	0.00	29.799 
14:05	70.6	70.6	70.6	51	51.6	2	4	315	0.00	29.799 
14:10	70.9	70.9	70.9	49	50.8	3	7	292	0.00	29.799 
14:15	70.8	70.8	70.8	49	50.7	4	7	270	0.00	29.806 
14:20	70.9	70.9	70.9	49	50.8	3	5	292	0.00	29.806 
14:25	70.9	70.9	70.9	49	50.8	3	6	315	0.00	29.806 
14:30	70.8	70.8	70.8	45	48.4	2	10	315	0.00	29.807 
14:35	70.4	70.4	70.4	47	49.2	3	9	292	0.00	29.807 
14:40	69.9	69.9	69.9	45	47.6	2	6	338	0.00	29.807 
14:45	69.6	69.6	69.6	48	49.0	2	5	270	0.00	29.811 
14:50	69.6	69.6	69.6	49	49.6	1	4	270	0.00	29.811 
14:55	69.3	69.3	69.3	48	48.8	1	3	338	0.00	29.811 
15:00	69.3	69.3	69.3	50	49.8	1	4	270	0.00	29.810 
15:05	69.4	69.4	69.4	50	49.9	2	4	292	0.00	29.810 
15:10	69.9	69.9	69.9	49	49.9	3	5	270	0.00	29.810 
15:15	70.6	70.6	70.6	48	49.9	2	5	315	0.00	29.809 
15:20	70.3	70.3	70.3	46	48.5	3	6	292	0.00	29.809 
15:25	70.3	70.3	70.3	46	48.5	3	5	292	0.00	29.809 
15:30	69.8	69.8	69.8	48	49.2	3	6	315	0.00	29.810 
15:35	69.8	69.8	69.8	49	49.8	2	6	292	0.00	29.810 
15:40	70.3	70.3	70.3	50	50.8	3	6	270	0.00	29.810 
15:45	70.6	70.6	70.6	50	51.0	2	5	270	0.00	29.807 
15:50	70.9	70.9	70.9	47	49.7	2	5	315	0.00	29.807 
15:55	71.3	71.3	71.3	47	50.0	3	6	292	0.00	29.807 
16:00	71.3	71.3	71.3	46	49.4	3	5	292	0.00	29.806 
16:05	70.6	70.6	70.6	46	48.8	3	6	270	0.00	29.806 
16:10	70.1	70.1	70.1	47	48.9	3	4	292	0.00	29.806 
16:15	70.4	70.4	70.4	47	49.2	1	5	315	0.00	29.807 
16:20	71.1	71.1	71.1	46	49.3	2	5	292	0.00	29.807 
16:25	71.5	71.5	71.5	44	48.4	3	5	292	0.00	29.807 
16:30	71.5	71.5	71.5	46	49.6	3	6	270	0.00	29.807 
16:35	70.6	70.6	70.6	44	47.6	2	5	292	0.00	29.807 
16:40	69.9	69.9	69.9	47	48.7	2	5	315	0.00	29.807 
16:45	69.4	69.4	69.4	45	47.1	3	5	292	0.00	29.810 
16:50	69.3	69.3	69.3	46	47.6	2	5	315	0.00	29.810 
16:55	69.8	69.8	69.8	46	48.1	2	5	270	0.00	29.810 
17:00	70.1	70.1	70.1	44	47.2	3	6	315	0.00	29.803 
17:05	70.3	70.3	70.3	45	47.9	3	6	292	0.00	29.803 
17:10	70.1	70.1	70.1	46	48.3	2	5	270	0.00	29.803 
17:15	69.6	69.6	69.6	46	47.9	1	3	270	0.00	29.805 
17:20	69.1	69.1	69.1	47	48.0	1	3	315	0.00	29.805 
17:25	68.8	68.8	68.8	47	47.7	1	3	315	0.00	29.805 
17:30	68.6	68.6	68.6	49	48.7	1	3	315	0.00	29.808 
17:35	68.4	68.4	68.4	49	48.5	2	5	315	0.00	29.808 
17:40	67.9	67.9	67.9	50	48.6	3	6	315	0.00	29.808 
17:45	67.6	67.6	67.6	52	49.3	2	4	292	0.00	29.812 
17:50	67.4	67.4	67.4	52	49.2	2	4	292	0.00	29.812 
17:55	67.1	67.1	67.1	52	48.9	1	4	292	0.00	29.812 
18:00	66.9	66.9	66.9	52	48.7	1	3	315	0.00	29.812 
18:05	67.1	67.1	67.1	52	48.9	1	3	315	0.00	29.812 
18:10	66.9	66.9	66.9	54	49.7	0	2	315	0.00	29.812 
18:15	67.1	67.1	67.1	54	49.9	1	4	315	0.00	29.814 
18:20	67.6	67.6	67.6	53	49.9	2	6	270	0.00	29.814 
18:25	67.8	67.8	67.8	50	48.5	3	5	270	0.00	29.814 
18:30	67.9	67.9	67.9	50	48.6	2	4	292	0.00	29.815 
18:35	67.4	67.4	67.4	52	49.2	1	5	292	0.00	29.815 
18:40	67.3	67.3	67.3	53	49.6	1	3	292	0.00	29.815 
18:45	67.4	67.4	67.4	52	49.2	1	4	292	0.00	29.819 
18:50	67.6	67.6	67.6	49	47.8	3	6	270	0.00	29.819 
18:55	67.6	67.6	67.6	49	47.8	2	6	270	0.00	29.819 
19:00	67.4	67.4	67.4	49	47.6	2	6	292	0.00	29.822 
19:05	67.4	67.4	67.4	49	47.6	2	5	270	0.00	29.822 
19:10	67.3	67.3	67.3	48	46.9	1	3	315	0.00	29.822 
19:15	67.1	67.1	67.1	48	46.7	2	4	315	0.00	29.828 
19:20	66.8	66.8	66.8	49	47.0	2	3	270	0.00	29.828 
19:25	66.6	66.6	66.6	49	46.8	2	4	270	0.00	29.828 
19:30	66.4	66.4	66.4	49	46.7	2	4	270	0.00	29.832 
19:35	66.1	66.1	66.1	49	46.4	2	6	270	0.00	29.832 
19:40	66.0	66.0	66.0	50	46.8	1	3	270	0.00	29.832 
19:45	65.6	65.6	65.6	51	47.0	1	5	270	0.00	29.833 
19:50	65.5	65.5	65.5	52	47.4	2	5	270	0.00	29.833 
19:55	65.2	65.2	65.2	53	47.6	1	3	315	0.00	29.833 
20:00	64.8	64.8	64.8	54	47.8	1	3	315	0.00	29.841 
20:05	64.5	64.5	64.5	54	47.5	0	2	315	0.00	29.841 
20:10	64.3	64.3	64.3	55	47.8	0	1	315	0.00	29.841 
20:15	64.0	64.0	64.0	56	48.0	0	1	315	0.00	29.846 
20:20	63.7	63.7	63.7	56	47.7	0	1	315	0.00	29.846 
20:25	63.4	63.4	63.4	57	47.9	0	1	315	0.00	29.846 
20:30	63.2	63.2	63.2	58	48.2	0	0	---	0.00	29.850 
20:35	62.9	62.9	62.9	59	48.3	0	0	---	0.00	29.850 
20:40	62.6	62.6	62.6	60	48.5	0	0	---	0.00	29.850 
20:45	62.4	62.4	62.4	60	48.3	0	1	315	0.00	29.860 
20:50	62.4	62.4	62.4	60	48.3	0	1	315	0.00	29.860 
20:55	62.4	62.4	62.4	60	48.3	0	1	315	0.00	29.860 
21:00	62.3	62.3	62.3	61	48.7	0	0	---	0.00	29.859 
21:05	62.1	62.1	62.1	61	48.5	0	0	---	0.00	29.859 
21:10	61.8	61.8	61.8	62	48.6	0	0	---	0.00	29.859 
21:15	61.5	61.5	61.5	62	48.4	0	0	---	0.00	29.862 
21:20	61.2	61.2	61.2	64	48.9	0	0	---	0.00	29.862 
21:25	60.7	60.7	60.7	66	49.3	0	0	---	0.00	29.862 
21:30	60.2	60.2	60.2	68	49.6	0	0	---	0.00	29.865 
21:35	59.8	59.8	59.8	67	48.8	0	0	---	0.00	29.865 
21:40	59.3	59.3	59.3	68	48.7	0	0	---	0.00	29.865 
21:45	59.0	59.0	59.0	69	48.8	0	0	---	0.00	29.871 
21:50	58.7	58.7	58.7	70	48.9	0	0	---	0.00	29.871 
21:55	58.4	58.4	58.4	72	49.4	0	0	---	0.00	29.871 
22:00	58.1	58.1	58.1	72	49.1	0	0	---	0.00	29.867 
22:05	57.8	57.8	57.8	73	49.2	0	0	---	0.00	29.867 
22:10	57.5	57.5	57.5	75	49.6	0	0	---	0.00	29.867 
22:15	57.3	57.3	57.3	76	49.8	0	0	---	0.00	29.869 
22:20	57.0	57.0	57.0	77	49.9	0	0	---	0.00	29.869 
22:25	56.9	56.9	56.9	77	49.8	0	0	---	0.00	29.869 
22:30	56.6	56.6	56.6	78	49.8	0	0	---	0.00	29.873 
22:35	56.3	56.3	56.3	79	49.9	0	0	---	0.00	29.873 
22:40	56.2	56.2	56.2	80	50.1	0	0	---	0.00	29.873 
22:45	55.9	55.9	55.9	80	49.8	0	0	---	0.00	29.877 
22:50	55.7	55.7	55.7	81	50.0	0	0	---	0.00	29.877 
22:55	55.6	55.6	55.6	81	49.9	0	0	---	0.00	29.877 
23:00	55.4	55.4	55.4	82	50.0	0	0	---	0.00	29.878 
23:05	55.3	55.3	55.3	83	50.2	0	0	---	0.00	29.878 
23:10	55.1	55.1	55.1	83	50.0	0	0	---	0.00	29.878 
23:15	55.0	55.0	55.0	83	49.9	0	0	---	0.00	29.873 
23:20	54.8	54.8	54.8	84	50.1	0	0	---	0.00	29.873 
23:25	54.7	54.7	54.7	85	50.3	0	0	---	0.00	29.873 
23:30	54.5	54.5	54.5	85	50.1	0	0	---	0.00	29.871 
23:35	54.4	54.4	54.4	85	50.0	0	0	---	0.00	29.871 
23:40	54.2	54.2	54.2	86	50.1	0	0	---	0.00	29.871 
23:45	54.1	54.1	54.1	86	50.0	0	0	---	0.00	29.872 
23:50	54.1	54.1	54.1	87	50.3	0	0	---	0.00	29.872 
23:55	54.1	54.1	54.1	87	50.3	0	0	---	0.00	29.872 

CoCoRaHS
IN-AL-39
A2 Web Hosting
Creative Commons License
GoDaddy
search engine by freefind advanced

loaded 2018-11-20 02:35:00 • last modified 2010-11-18 10:43:29
Privacy PolicyDisclaimer
• wx.awcolley.com is powered by PmWiki v.2002016 •
• all content (unless otherwise noted) © 2018 A W Colley